sensor_id;sensor_type;location;lat;lon;timestamp;P1;durP1;ratioP1;P2;durP2;ratioP2
58250;SDS011;51449;51.676;5.812;2023-06-10T00:01:21;8.25;;;7.45;;
58250;SDS011;51449;51.676;5.812;2023-06-10T00:04:03;8.45;;;7.57;;
58250;SDS011;51449;51.676;5.812;2023-06-10T00:06:45;7.82;;;7.10;;
58250;SDS011;51449;51.676;5.812;2023-06-10T00:09:31;8.30;;;7.55;;
58250;SDS011;51449;51.676;5.812;2023-06-10T00:12:12;7.90;;;7.20;;
58250;SDS011;51449;51.676;5.812;2023-06-10T00:14:52;7.78;;;7.18;;
58250;SDS011;51449;51.676;5.812;2023-06-10T00:17:33;8.40;;;7.47;;
58250;SDS011;51449;51.676;5.812;2023-06-10T00:20:13;8.32;;;7.30;;
58250;SDS011;51449;51.676;5.812;2023-06-10T00:22:54;7.10;;;6.50;;
58250;SDS011;51449;51.676;5.812;2023-06-10T00:25:34;8.45;;;7.65;;
58250;SDS011;51449;51.676;5.812;2023-06-10T00:28:15;8.85;;;8.05;;
58250;SDS011;51449;51.676;5.812;2023-06-10T00:30:55;8.38;;;7.55;;
58250;SDS011;51449;51.676;5.812;2023-06-10T00:33:37;8.32;;;7.35;;
58250;SDS011;51449;51.676;5.812;2023-06-10T00:36:17;9.38;;;8.10;;
58250;SDS011;51449;51.676;5.812;2023-06-10T00:38:58;9.27;;;8.38;;
58250;SDS011;51449;51.676;5.812;2023-06-10T00:41:40;7.82;;;7.18;;
58250;SDS011;51449;51.676;5.812;2023-06-10T00:44:20;8.43;;;7.63;;
58250;SDS011;51449;51.676;5.812;2023-06-10T00:47:01;8.48;;;7.68;;
58250;SDS011;51449;51.676;5.812;2023-06-10T00:49:42;8.00;;;7.30;;
58250;SDS011;51449;51.676;5.812;2023-06-10T00:52:26;9.20;;;8.30;;
58250;SDS011;51449;51.676;5.812;2023-06-10T00:57:54;8.75;;;7.85;;
58250;SDS011;51449;51.676;5.812;2023-06-10T01:00:34;8.40;;;7.70;;
58250;SDS011;51449;51.676;5.812;2023-06-10T01:03:15;8.80;;;8.05;;
58250;SDS011;51449;51.676;5.812;2023-06-10T01:09:59;9.82;;;8.93;;
58250;SDS011;51449;51.676;5.812;2023-06-10T01:12:33;10.32;;;9.20;;
58250;SDS011;51449;51.676;5.812;2023-06-10T01:15:31;9.45;;;8.45;;
58250;SDS011;51449;51.676;5.812;2023-06-10T01:18:13;8.98;;;8.15;;
58250;SDS011;51449;51.676;5.812;2023-06-10T01:20:55;9.63;;;8.73;;
58250;SDS011;51449;51.676;5.812;2023-06-10T01:23:36;10.00;;;9.05;;
58250;SDS011;51449;51.676;5.812;2023-06-10T01:26:16;10.55;;;8.77;;
58250;SDS011;51449;51.676;5.812;2023-06-10T01:29:03;9.38;;;8.48;;
58250;SDS011;51449;51.676;5.812;2023-06-10T01:31:57;10.85;;;9.23;;
58250;SDS011;51449;51.676;5.812;2023-06-10T01:34:47;9.75;;;8.85;;
58250;SDS011;51449;51.676;5.812;2023-06-10T01:37:31;9.70;;;8.80;;
58250;SDS011;51449;51.676;5.812;2023-06-10T01:40:13;10.32;;;9.07;;
58250;SDS011;51449;51.676;5.812;2023-06-10T01:42:55;9.80;;;8.90;;
58250;SDS011;51449;51.676;5.812;2023-06-10T01:45:36;10.43;;;9.13;;
58250;SDS011;51449;51.676;5.812;2023-06-10T01:48:16;9.40;;;8.50;;
58250;SDS011;51449;51.676;5.812;2023-06-10T01:50:57;9.52;;;8.63;;
58250;SDS011;51449;51.676;5.812;2023-06-10T01:53:38;10.68;;;9.68;;
58250;SDS011;51449;51.676;5.812;2023-06-10T01:56:19;9.90;;;8.90;;
58250;SDS011;51449;51.676;5.812;2023-06-10T01:59:00;10.20;;;9.20;;
58250;SDS011;51449;51.676;5.812;2023-06-10T02:01:40;10.68;;;9.63;;
58250;SDS011;51449;51.676;5.812;2023-06-10T02:04:23;10.55;;;9.57;;
58250;SDS011;51449;51.676;5.812;2023-06-10T02:07:03;10.15;;;9.13;;
58250;SDS011;51449;51.676;5.812;2023-06-10T02:09:45;10.20;;;9.40;;
58250;SDS011;51449;51.676;5.812;2023-06-10T02:12:25;10.50;;;9.18;;
58250;SDS011;51449;51.676;5.812;2023-06-10T02:15:06;11.35;;;9.40;;
58250;SDS011;51449;51.676;5.812;2023-06-10T02:17:47;10.40;;;9.30;;
58250;SDS011;51449;51.676;5.812;2023-06-10T02:20:31;10.70;;;9.43;;
58250;SDS011;51449;51.676;5.812;2023-06-10T02:23:11;10.82;;;9.77;;
58250;SDS011;51449;51.676;5.812;2023-06-10T02:25:52;10.23;;;9.30;;
58250;SDS011;51449;51.676;5.812;2023-06-10T02:28:32;10.45;;;9.30;;
58250;SDS011;51449;51.676;5.812;2023-06-10T02:31:13;10.15;;;9.13;;
58250;SDS011;51449;51.676;5.812;2023-06-10T02:33:54;10.63;;;9.50;;
58250;SDS011;51449;51.676;5.812;2023-06-10T02:36:37;10.32;;;9.38;;
58250;SDS011;51449;51.676;5.812;2023-06-10T02:39:17;10.93;;;9.88;;
58250;SDS011;51449;51.676;5.812;2023-06-10T02:41:58;10.63;;;9.63;;
58250;SDS011;51449;51.676;5.812;2023-06-10T02:44:38;10.30;;;9.00;;
58250;SDS011;51449;51.676;5.812;2023-06-10T02:47:23;9.85;;;8.88;;
58250;SDS011;51449;51.676;5.812;2023-06-10T02:50:03;10.45;;;9.30;;
58250;SDS011;51449;51.676;5.812;2023-06-10T02:52:49;11.00;;;10.00;;
58250;SDS011;51449;51.676;5.812;2023-06-10T02:55:30;11.65;;;9.32;;
58250;SDS011;51449;51.676;5.812;2023-06-10T02:58:14;9.80;;;8.68;;
58250;SDS011;51449;51.676;5.812;2023-06-10T03:00:56;10.07;;;9.18;;
58250;SDS011;51449;51.676;5.812;2023-06-10T03:03:40;10.98;;;9.85;;
58250;SDS011;51449;51.676;5.812;2023-06-10T03:06:26;10.55;;;9.45;;
58250;SDS011;51449;51.676;5.812;2023-06-10T03:09:15;10.60;;;9.50;;
58250;SDS011;51449;51.676;5.812;2023-06-10T03:11:59;10.57;;;9.57;;
58250;SDS011;51449;51.676;5.812;2023-06-10T03:14:44;10.63;;;9.63;;
58250;SDS011;51449;51.676;5.812;2023-06-10T03:17:25;10.27;;;9.27;;
58250;SDS011;51449;51.676;5.812;2023-06-10T03:20:06;9.52;;;8.63;;
58250;SDS011;51449;51.676;5.812;2023-06-10T03:22:52;10.60;;;9.60;;
58250;SDS011;51449;51.676;5.812;2023-06-10T03:25:32;11.80;;;9.93;;
58250;SDS011;51449;51.676;5.812;2023-06-10T03:28:12;12.95;;;10.60;;
58250;SDS011;51449;51.676;5.812;2023-06-10T03:30:55;11.65;;;9.93;;
58250;SDS011;51449;51.676;5.812;2023-06-10T03:33:38;10.38;;;9.27;;
58250;SDS011;51449;51.676;5.812;2023-06-10T03:36:19;10.48;;;9.48;;
58250;SDS011;51449;51.676;5.812;2023-06-10T03:39:00;10.80;;;9.80;;
58250;SDS011;51449;51.676;5.812;2023-06-10T03:41:41;11.20;;;9.18;;
58250;SDS011;51449;51.676;5.812;2023-06-10T03:44:26;10.75;;;9.30;;
58250;SDS011;51449;51.676;5.812;2023-06-10T03:47:08;10.13;;;9.13;;
58250;SDS011;51449;51.676;5.812;2023-06-10T03:49:50;10.15;;;9.00;;
58250;SDS011;51449;51.676;5.812;2023-06-10T03:52:30;9.88;;;8.88;;
58250;SDS011;51449;51.676;5.812;2023-06-10T03:55:11;10.52;;;9.40;;
58250;SDS011;51449;51.676;5.812;2023-06-10T03:57:57;10.38;;;9.25;;
58250;SDS011;51449;51.676;5.812;2023-06-10T04:00:37;10.32;;;9.02;;
58250;SDS011;51449;51.676;5.812;2023-06-10T04:03:21;11.88;;;9.70;;
58250;SDS011;51449;51.676;5.812;2023-06-10T04:06:04;10.90;;;8.88;;
58250;SDS011;51449;51.676;5.812;2023-06-10T04:08:45;9.65;;;8.65;;
58250;SDS011;51449;51.676;5.812;2023-06-10T04:11:26;12.10;;;8.77;;
58250;SDS011;51449;51.676;5.812;2023-06-10T04:14:07;9.95;;;8.73;;
58250;SDS011;51449;51.676;5.812;2023-06-10T04:16:51;10.45;;;9.40;;
58250;SDS011;51449;51.676;5.812;2023-06-10T04:19:33;10.13;;;9.07;;
58250;SDS011;51449;51.676;5.812;2023-06-10T04:22:13;10.68;;;8.55;;
58250;SDS011;51449;51.676;5.812;2023-06-10T04:24:54;10.20;;;9.20;;
58250;SDS011;51449;51.676;5.812;2023-06-10T04:27:34;9.95;;;8.63;;
58250;SDS011;51449;51.676;5.812;2023-06-10T04:30:16;9.10;;;8.13;;
58250;SDS011;51449;51.676;5.812;2023-06-10T04:32:57;11.00;;;9.30;;
58250;SDS011;51449;51.676;5.812;2023-06-10T04:35:38;9.93;;;8.35;;
58250;SDS011;51449;51.676;5.812;2023-06-10T04:38:20;12.95;;;9.35;;
58250;SDS011;51449;51.676;5.812;2023-06-10T04:41:01;13.40;;;9.30;;
58250;SDS011;51449;51.676;5.812;2023-06-10T04:43:44;9.23;;;8.25;;
58250;SDS011;51449;51.676;5.812;2023-06-10T04:46:25;10.95;;;8.93;;
58250;SDS011;51449;51.676;5.812;2023-06-10T04:49:06;9.63;;;8.43;;
58250;SDS011;51449;51.676;5.812;2023-06-10T04:51:46;10.90;;;9.00;;
58250;SDS011;51449;51.676;5.812;2023-06-10T04:54:28;9.88;;;8.88;;
58250;SDS011;51449;51.676;5.812;2023-06-10T04:57:08;10.90;;;8.35;;
58250;SDS011;51449;51.676;5.812;2023-06-10T04:59:48;11.60;;;7.88;;
58250;SDS011;51449;51.676;5.812;2023-06-10T05:02:29;9.52;;;8.43;;
58250;SDS011;51449;51.676;5.812;2023-06-10T05:05:09;10.10;;;8.52;;
58250;SDS011;51449;51.676;5.812;2023-06-10T05:07:50;12.48;;;8.82;;
58250;SDS011;51449;51.676;5.812;2023-06-10T05:10:30;10.80;;;8.30;;
58250;SDS011;51449;51.676;5.812;2023-06-10T05:13:12;9.45;;;8.45;;
58250;SDS011;51449;51.676;5.812;2023-06-10T05:15:52;9.40;;;8.48;;
58250;SDS011;51449;51.676;5.812;2023-06-10T05:18:32;10.90;;;7.82;;
58250;SDS011;51449;51.676;5.812;2023-06-10T05:21:13;10.48;;;8.25;;
58250;SDS011;51449;51.676;5.812;2023-06-10T05:23:53;10.30;;;8.15;;
58250;SDS011;51449;51.676;5.812;2023-06-10T05:26:35;10.68;;;7.95;;
58250;SDS011;51449;51.676;5.812;2023-06-10T05:29:17;8.50;;;7.45;;
58250;SDS011;51449;51.676;5.812;2023-06-10T05:31:57;12.00;;;7.88;;
58250;SDS011;51449;51.676;5.812;2023-06-10T05:34:43;9.73;;;8.00;;
58250;SDS011;51449;51.676;5.812;2023-06-10T05:37:24;12.82;;;7.97;;
58250;SDS011;51449;51.676;5.812;2023-06-10T05:40:04;11.00;;;7.68;;
58250;SDS011;51449;51.676;5.812;2023-06-10T05:42:45;9.23;;;7.05;;
58250;SDS011;51449;51.676;5.812;2023-06-10T05:45:26;10.82;;;7.10;;
58250;SDS011;51449;51.676;5.812;2023-06-10T05:48:07;10.10;;;7.38;;
58250;SDS011;51449;51.676;5.812;2023-06-10T05:50:47;8.70;;;6.90;;
58250;SDS011;51449;51.676;5.812;2023-06-10T05:53:28;8.55;;;7.53;;
58250;SDS011;51449;51.676;5.812;2023-06-10T05:56:09;8.90;;;7.15;;
58250;SDS011;51449;51.676;5.812;2023-06-10T05:58:49;8.70;;;6.95;;
58250;SDS011;51449;51.676;5.812;2023-06-10T06:01:30;9.52;;;7.03;;
58250;SDS011;51449;51.676;5.812;2023-06-10T06:04:11;9.98;;;6.80;;
58250;SDS011;51449;51.676;5.812;2023-06-10T06:06:51;8.77;;;6.88;;
58250;SDS011;51449;51.676;5.812;2023-06-10T06:12:20;9.45;;;6.40;;
58250;SDS011;51449;51.676;5.812;2023-06-10T06:15:01;9.55;;;6.60;;
58250;SDS011;51449;51.676;5.812;2023-06-10T06:17:43;8.63;;;6.63;;
58250;SDS011;51449;51.676;5.812;2023-06-10T06:20:23;8.48;;;6.50;;
58250;SDS011;51449;51.676;5.812;2023-06-10T06:23:03;8.60;;;6.43;;
58250;SDS011;51449;51.676;5.812;2023-06-10T06:25:45;10.25;;;7.05;;
58250;SDS011;51449;51.676;5.812;2023-06-10T06:28:25;9.90;;;6.72;;
58250;SDS011;51449;51.676;5.812;2023-06-10T06:31:09;8.40;;;6.40;;
58250;SDS011;51449;51.676;5.812;2023-06-10T06:33:50;8.98;;;6.72;;
58250;SDS011;51449;51.676;5.812;2023-06-10T06:36:30;8.57;;;6.55;;
58250;SDS011;51449;51.676;5.812;2023-06-10T06:39:10;8.77;;;6.75;;
58250;SDS011;51449;51.676;5.812;2023-06-10T06:41:51;8.57;;;6.13;;
58250;SDS011;51449;51.676;5.812;2023-06-10T06:44:38;8.35;;;6.18;;
58250;SDS011;51449;51.676;5.812;2023-06-10T06:47:18;8.57;;;6.15;;
58250;SDS011;51449;51.676;5.812;2023-06-10T06:50:00;9.02;;;6.47;;
58250;SDS011;51449;51.676;5.812;2023-06-10T06:52:40;10.98;;;6.38;;
58250;SDS011;51449;51.676;5.812;2023-06-10T06:55:21;8.43;;;6.28;;
58250;SDS011;51449;51.676;5.812;2023-06-10T06:58:01;8.48;;;6.68;;
58250;SDS011;51449;51.676;5.812;2023-06-10T07:00:44;9.02;;;6.00;;
58250;SDS011;51449;51.676;5.812;2023-06-10T07:03:25;8.13;;;6.57;;
58250;SDS011;51449;51.676;5.812;2023-06-10T07:06:05;7.80;;;5.97;;
58250;SDS011;51449;51.676;5.812;2023-06-10T07:08:45;9.15;;;6.20;;
58250;SDS011;51449;51.676;5.812;2023-06-10T07:11:25;8.75;;;5.90;;
58250;SDS011;51449;51.676;5.812;2023-06-10T07:14:07;9.63;;;6.35;;
58250;SDS011;51449;51.676;5.812;2023-06-10T07:16:48;6.78;;;5.82;;
58250;SDS011;51449;51.676;5.812;2023-06-10T07:19:29;10.35;;;6.35;;
58250;SDS011;51449;51.676;5.812;2023-06-10T07:22:09;9.25;;;6.35;;
58250;SDS011;51449;51.676;5.812;2023-06-10T07:24:50;7.65;;;5.97;;
58250;SDS011;51449;51.676;5.812;2023-06-10T07:27:32;8.43;;;6.55;;
58250;SDS011;51449;51.676;5.812;2023-06-10T07:30:12;8.77;;;6.00;;
58250;SDS011;51449;51.676;5.812;2023-06-10T07:32:52;6.85;;;5.93;;
58250;SDS011;51449;51.676;5.812;2023-06-10T07:35:33;9.90;;;6.32;;
58250;SDS011;51449;51.676;5.812;2023-06-10T07:38:14;7.28;;;6.50;;
58250;SDS011;51449;51.676;5.812;2023-06-10T07:40:55;9.80;;;6.25;;
58250;SDS011;51449;51.676;5.812;2023-06-10T07:43:35;8.38;;;6.28;;
58250;SDS011;51449;51.676;5.812;2023-06-10T07:46:15;9.80;;;6.03;;
58250;SDS011;51449;51.676;5.812;2023-06-10T07:48:55;8.88;;;5.75;;
58250;SDS011;51449;51.676;5.812;2023-06-10T07:51:36;6.50;;;5.65;;
58250;SDS011;51449;51.676;5.812;2023-06-10T07:54:16;8.20;;;5.63;;
58250;SDS011;51449;51.676;5.812;2023-06-10T07:56:57;9.98;;;5.88;;
58250;SDS011;51449;51.676;5.812;2023-06-10T07:59:37;8.65;;;6.10;;
58250;SDS011;51449;51.676;5.812;2023-06-10T08:02:18;11.25;;;6.30;;
58250;SDS011;51449;51.676;5.812;2023-06-10T08:04:58;8.35;;;6.07;;
58250;SDS011;51449;51.676;5.812;2023-06-10T08:07:39;10.35;;;6.30;;
58250;SDS011;51449;51.676;5.812;2023-06-10T08:10:20;7.13;;;5.60;;
58250;SDS011;51449;51.676;5.812;2023-06-10T08:13:00;7.25;;;5.80;;
58250;SDS011;51449;51.676;5.812;2023-06-10T08:15:40;7.57;;;5.43;;
58250;SDS011;51449;51.676;5.812;2023-06-10T08:18:20;8.25;;;6.07;;
58250;SDS011;51449;51.676;5.812;2023-06-10T08:21:01;7.95;;;6.10;;
58250;SDS011;51449;51.676;5.812;2023-06-10T08:23:42;6.75;;;5.40;;
58250;SDS011;51449;51.676;5.812;2023-06-10T08:26:24;7.65;;;5.82;;
58250;SDS011;51449;51.676;5.812;2023-06-10T08:29:04;7.15;;;5.15;;
58250;SDS011;51449;51.676;5.812;2023-06-10T08:31:44;6.75;;;5.47;;
58250;SDS011;51449;51.676;5.812;2023-06-10T08:34:25;6.95;;;6.25;;
58250;SDS011;51449;51.676;5.812;2023-06-10T08:37:06;6.78;;;5.68;;
58250;SDS011;51449;51.676;5.812;2023-06-10T08:39:46;9.23;;;5.43;;
58250;SDS011;51449;51.676;5.812;2023-06-10T08:42:34;8.13;;;5.93;;
58250;SDS011;51449;51.676;5.812;2023-06-10T08:45:23;8.93;;;6.07;;
58250;SDS011;51449;51.676;5.812;2023-06-10T08:48:04;7.28;;;5.57;;
58250;SDS011;51449;51.676;5.812;2023-06-10T08:50:51;8.38;;;6.13;;
58250;SDS011;51449;51.676;5.812;2023-06-10T08:53:33;6.57;;;5.80;;
58250;SDS011;51449;51.676;5.812;2023-06-10T08:56:23;7.03;;;5.45;;
58250;SDS011;51449;51.676;5.812;2023-06-10T08:59:07;7.20;;;5.82;;
58250;SDS011;51449;51.676;5.812;2023-06-10T09:01:49;8.20;;;5.90;;
58250;SDS011;51449;51.676;5.812;2023-06-10T09:04:32;8.48;;;5.80;;
58250;SDS011;51449;51.676;5.812;2023-06-10T09:07:13;5.90;;;5.30;;
58250;SDS011;51449;51.676;5.812;2023-06-10T09:09:55;8.13;;;5.93;;
58250;SDS011;51449;51.676;5.812;2023-06-10T09:12:39;7.25;;;5.65;;
58250;SDS011;51449;51.676;5.812;2023-06-10T09:15:19;8.07;;;5.88;;
58250;SDS011;51449;51.676;5.812;2023-06-10T09:18:00;7.07;;;5.82;;
58250;SDS011;51449;51.676;5.812;2023-06-10T09:20:42;6.90;;;5.57;;
58250;SDS011;51449;51.676;5.812;2023-06-10T09:23:24;7.43;;;5.70;;
58250;SDS011;51449;51.676;5.812;2023-06-10T09:26:08;6.28;;;5.68;;
58250;SDS011;51449;51.676;5.812;2023-06-10T09:28:51;6.60;;;5.78;;
58250;SDS011;51449;51.676;5.812;2023-06-10T09:31:31;8.35;;;6.00;;
58250;SDS011;51449;51.676;5.812;2023-06-10T09:34:15;6.43;;;5.25;;
58250;SDS011;51449;51.676;5.812;2023-06-10T09:36:57;8.18;;;5.75;;
58250;SDS011;51449;51.676;5.812;2023-06-10T09:39:38;6.80;;;5.70;;
58250;SDS011;51449;51.676;5.812;2023-06-10T09:42:22;8.73;;;5.23;;
58250;SDS011;51449;51.676;5.812;2023-06-10T09:45:03;7.03;;;5.85;;
58250;SDS011;51449;51.676;5.812;2023-06-10T09:47:46;6.20;;;5.60;;
58250;SDS011;51449;51.676;5.812;2023-06-10T09:50:42;7.45;;;6.00;;
58250;SDS011;51449;51.676;5.812;2023-06-10T09:53:24;6.68;;;5.97;;
58250;SDS011;51449;51.676;5.812;2023-06-10T09:56:05;8.48;;;6.45;;
58250;SDS011;51449;51.676;5.812;2023-06-10T09:58:52;8.85;;;6.20;;
58250;SDS011;51449;51.676;5.812;2023-06-10T10:01:33;7.88;;;6.72;;
58250;SDS011;51449;51.676;5.812;2023-06-10T10:04:14;7.72;;;5.68;;
58250;SDS011;51449;51.676;5.812;2023-06-10T10:07:04;7.00;;;5.85;;
58250;SDS011;51449;51.676;5.812;2023-06-10T10:09:46;7.75;;;5.95;;
58250;SDS011;51449;51.676;5.812;2023-06-10T10:12:27;6.85;;;5.78;;
58250;SDS011;51449;51.676;5.812;2023-06-10T10:15:09;6.50;;;5.90;;
58250;SDS011;51449;51.676;5.812;2023-06-10T10:17:52;6.85;;;5.80;;
58250;SDS011;51449;51.676;5.812;2023-06-10T10:20:47;8.23;;;5.70;;
58250;SDS011;51449;51.676;5.812;2023-06-10T10:23:34;7.90;;;6.10;;
58250;SDS011;51449;51.676;5.812;2023-06-10T10:26:41;7.80;;;5.65;;
58250;SDS011;51449;51.676;5.812;2023-06-10T10:29:33;7.22;;;6.28;;
58250;SDS011;51449;51.676;5.812;2023-06-10T10:32:19;9.40;;;6.15;;
58250;SDS011;51449;51.676;5.812;2023-06-10T10:35:12;6.72;;;5.68;;
58250;SDS011;51449;51.676;5.812;2023-06-10T10:38:03;7.40;;;5.80;;
58250;SDS011;51449;51.676;5.812;2023-06-10T10:40:45;7.43;;;6.18;;
58250;SDS011;51449;51.676;5.812;2023-06-10T10:43:30;5.82;;;5.25;;
58250;SDS011;51449;51.676;5.812;2023-06-10T10:48:57;6.97;;;5.70;;
58250;SDS011;51449;51.676;5.812;2023-06-10T10:51:54;10.15;;;5.72;;
58250;SDS011;51449;51.676;5.812;2023-06-10T10:54:36;7.07;;;5.63;;
58250;SDS011;51449;51.676;5.812;2023-06-10T10:57:21;7.28;;;5.63;;
58250;SDS011;51449;51.676;5.812;2023-06-10T11:00:04;7.63;;;5.68;;
58250;SDS011;51449;51.676;5.812;2023-06-10T11:02:45;7.40;;;5.47;;
58250;SDS011;51449;51.676;5.812;2023-06-10T11:05:31;6.90;;;5.13;;
58250;SDS011;51449;51.676;5.812;2023-06-10T11:11:26;5.65;;;5.15;;
58250;SDS011;51449;51.676;5.812;2023-06-10T11:14:11;7.20;;;5.60;;
58250;SDS011;51449;51.676;5.812;2023-06-10T11:16:53;6.88;;;5.38;;
58250;SDS011;51449;51.676;5.812;2023-06-10T11:19:38;6.85;;;5.30;;
58250;SDS011;51449;51.676;5.812;2023-06-10T11:22:20;5.85;;;5.35;;
58250;SDS011;51449;51.676;5.812;2023-06-10T11:25:01;6.72;;;5.53;;
58250;SDS011;51449;51.676;5.812;2023-06-10T11:27:41;6.00;;;5.45;;
58250;SDS011;51449;51.676;5.812;2023-06-10T11:30:21;6.82;;;5.43;;
58250;SDS011;51449;51.676;5.812;2023-06-10T11:33:06;6.63;;;5.97;;
58250;SDS011;51449;51.676;5.812;2023-06-10T11:35:47;6.95;;;5.68;;
58250;SDS011;51449;51.676;5.812;2023-06-10T11:38:27;7.03;;;5.63;;
58250;SDS011;51449;51.676;5.812;2023-06-10T11:41:08;6.00;;;5.40;;
58250;SDS011;51449;51.676;5.812;2023-06-10T11:43:48;6.30;;;5.70;;
58250;SDS011;51449;51.676;5.812;2023-06-10T11:46:29;7.32;;;5.70;;
58250;SDS011;51449;51.676;5.812;2023-06-10T11:49:10;7.13;;;5.55;;
58250;SDS011;51449;51.676;5.812;2023-06-10T11:51:51;8.13;;;6.00;;
58250;SDS011;51449;51.676;5.812;2023-06-10T11:54:32;5.97;;;5.45;;
58250;SDS011;51449;51.676;5.812;2023-06-10T11:57:12;6.30;;;5.28;;
58250;SDS011;51449;51.676;5.812;2023-06-10T11:59:52;7.35;;;5.57;;
58250;SDS011;51449;51.676;5.812;2023-06-10T12:02:33;5.60;;;5.10;;
58250;SDS011;51449;51.676;5.812;2023-06-10T12:05:14;6.32;;;5.72;;
58250;SDS011;51449;51.676;5.812;2023-06-10T12:08:11;7.07;;;5.88;;
58250;SDS011;51449;51.676;5.812;2023-06-10T12:10:52;7.47;;;5.55;;
58250;SDS011;51449;51.676;5.812;2023-06-10T12:13:34;6.30;;;5.60;;
58250;SDS011;51449;51.676;5.812;2023-06-10T12:16:15;5.82;;;5.32;;
58250;SDS011;51449;51.676;5.812;2023-06-10T12:19:03;5.85;;;5.38;;
58250;SDS011;51449;51.676;5.812;2023-06-10T12:21:45;6.53;;;5.75;;
58250;SDS011;51449;51.676;5.812;2023-06-10T12:24:26;6.07;;;5.40;;
58250;SDS011;51449;51.676;5.812;2023-06-10T12:27:10;6.03;;;5.43;;
58250;SDS011;51449;51.676;5.812;2023-06-10T12:29:52;7.05;;;6.25;;
58250;SDS011;51449;51.676;5.812;2023-06-10T12:32:40;7.35;;;5.47;;
58250;SDS011;51449;51.676;5.812;2023-06-10T12:35:28;7.47;;;5.20;;
58250;SDS011;51449;51.676;5.812;2023-06-10T12:38:09;5.90;;;5.40;;
58250;SDS011;51449;51.676;5.812;2023-06-10T12:40:52;6.30;;;5.68;;
58250;SDS011;51449;51.676;5.812;2023-06-10T12:43:33;6.20;;;5.63;;
58250;SDS011;51449;51.676;5.812;2023-06-10T12:46:14;6.18;;;5.57;;
58250;SDS011;51449;51.676;5.812;2023-06-10T12:48:54;6.53;;;5.93;;
58250;SDS011;51449;51.676;5.812;2023-06-10T12:51:35;5.72;;;5.13;;
58250;SDS011;51449;51.676;5.812;2023-06-10T12:54:17;5.97;;;5.47;;
58250;SDS011;51449;51.676;5.812;2023-06-10T12:56:57;6.07;;;5.47;;
58250;SDS011;51449;51.676;5.812;2023-06-10T12:59:38;5.82;;;5.32;;
58250;SDS011;51449;51.676;5.812;2023-06-10T13:02:20;6.03;;;5.03;;
58250;SDS011;51449;51.676;5.812;2023-06-10T13:05:03;5.90;;;5.40;;
58250;SDS011;51449;51.676;5.812;2023-06-10T13:07:44;5.95;;;5.32;;
58250;SDS011;51449;51.676;5.812;2023-06-10T13:10:25;6.18;;;5.57;;
58250;SDS011;51449;51.676;5.812;2023-06-10T13:13:05;6.47;;;5.78;;
58250;SDS011;51449;51.676;5.812;2023-06-10T13:15:48;6.05;;;5.40;;
58250;SDS011;51449;51.676;5.812;2023-06-10T13:18:30;6.68;;;5.35;;
58250;SDS011;51449;51.676;5.812;2023-06-10T13:21:10;6.45;;;5.70;;
58250;SDS011;51449;51.676;5.812;2023-06-10T13:23:51;6.57;;;5.40;;
58250;SDS011;51449;51.676;5.812;2023-06-10T13:26:32;6.10;;;5.47;;
58250;SDS011;51449;51.676;5.812;2023-06-10T13:29:12;7.15;;;5.70;;
58250;SDS011;51449;51.676;5.812;2023-06-10T13:31:55;6.53;;;5.18;;
58250;SDS011;51449;51.676;5.812;2023-06-10T13:34:36;6.53;;;5.40;;
58250;SDS011;51449;51.676;5.812;2023-06-10T13:37:17;5.95;;;5.35;;
58250;SDS011;51449;51.676;5.812;2023-06-10T13:39:57;5.50;;;5.00;;
58250;SDS011;51449;51.676;5.812;2023-06-10T13:42:38;6.32;;;5.57;;
58250;SDS011;51449;51.676;5.812;2023-06-10T13:45:18;5.75;;;5.22;;
58250;SDS011;51449;51.676;5.812;2023-06-10T13:47:58;5.78;;;5.28;;
58250;SDS011;51449;51.676;5.812;2023-06-10T13:50:39;6.13;;;5.45;;
58250;SDS011;51449;51.676;5.812;2023-06-10T13:53:19;5.75;;;5.25;;
58250;SDS011;51449;51.676;5.812;2023-06-10T13:56:01;5.75;;;5.18;;
58250;SDS011;51449;51.676;5.812;2023-06-10T13:58:41;5.95;;;5.03;;
58250;SDS011;51449;51.676;5.812;2023-06-10T14:01:22;5.45;;;5.00;;
58250;SDS011;51449;51.676;5.812;2023-06-10T14:04:04;6.30;;;5.47;;
58250;SDS011;51449;51.676;5.812;2023-06-10T14:06:46;6.55;;;5.15;;
58250;SDS011;51449;51.676;5.812;2023-06-10T14:09:28;7.20;;;5.20;;
58250;SDS011;51449;51.676;5.812;2023-06-10T14:12:08;5.82;;;5.22;;
58250;SDS011;51449;51.676;5.812;2023-06-10T14:14:50;6.25;;;5.47;;
58250;SDS011;51449;51.676;5.812;2023-06-10T14:17:31;7.68;;;5.57;;
58250;SDS011;51449;51.676;5.812;2023-06-10T14:20:11;6.10;;;5.50;;
58250;SDS011;51449;51.676;5.812;2023-06-10T14:22:52;6.30;;;5.60;;
58250;SDS011;51449;51.676;5.812;2023-06-10T14:25:32;5.85;;;5.32;;
58250;SDS011;51449;51.676;5.812;2023-06-10T14:28:13;6.32;;;5.72;;
58250;SDS011;51449;51.676;5.812;2023-06-10T14:30:53;6.18;;;5.57;;
58250;SDS011;51449;51.676;5.812;2023-06-10T14:33:33;6.43;;;5.43;;
58250;SDS011;51449;51.676;5.812;2023-06-10T14:36:14;6.13;;;5.53;;
58250;SDS011;51449;51.676;5.812;2023-06-10T14:38:54;6.18;;;5.63;;
58250;SDS011;51449;51.676;5.812;2023-06-10T14:41:35;6.38;;;5.53;;
58250;SDS011;51449;51.676;5.812;2023-06-10T14:44:15;7.85;;;5.50;;
58250;SDS011;51449;51.676;5.812;2023-06-10T14:46:55;5.65;;;5.15;;
58250;SDS011;51449;51.676;5.812;2023-06-10T14:49:35;6.65;;;5.75;;
58250;SDS011;51449;51.676;5.812;2023-06-10T14:52:16;6.60;;;5.60;;
58250;SDS011;51449;51.676;5.812;2023-06-10T14:54:56;5.90;;;5.30;;
58250;SDS011;51449;51.676;5.812;2023-06-10T14:57:37;6.35;;;5.70;;
58250;SDS011;51449;51.676;5.812;2023-06-10T15:00:17;6.03;;;5.53;;
58250;SDS011;51449;51.676;5.812;2023-06-10T15:03:02;6.32;;;5.72;;
58250;SDS011;51449;51.676;5.812;2023-06-10T15:05:43;7.00;;;5.95;;
58250;SDS011;51449;51.676;5.812;2023-06-10T15:08:23;6.47;;;5.75;;
58250;SDS011;51449;51.676;5.812;2023-06-10T15:11:04;5.80;;;5.30;;
58250;SDS011;51449;51.676;5.812;2023-06-10T15:13:44;6.47;;;5.85;;
58250;SDS011;51449;51.676;5.812;2023-06-10T15:16:25;6.20;;;5.63;;
58250;SDS011;51449;51.676;5.812;2023-06-10T15:19:06;6.72;;;5.82;;
58250;SDS011;51449;51.676;5.812;2023-06-10T15:21:48;6.07;;;5.47;;
58250;SDS011;51449;51.676;5.812;2023-06-10T15:24:28;6.03;;;5.53;;
58250;SDS011;51449;51.676;5.812;2023-06-10T15:27:09;6.38;;;5.60;;
58250;SDS011;51449;51.676;5.812;2023-06-10T15:29:50;6.30;;;5.70;;
58250;SDS011;51449;51.676;5.812;2023-06-10T15:32:32;6.60;;;5.68;;
58250;SDS011;51449;51.676;5.812;2023-06-10T15:35:12;5.93;;;5.18;;
58250;SDS011;51449;51.676;5.812;2023-06-10T15:37:54;7.78;;;5.80;;
58250;SDS011;51449;51.676;5.812;2023-06-10T15:40:34;6.35;;;5.80;;
58250;SDS011;51449;51.676;5.812;2023-06-10T15:43:15;7.10;;;5.90;;
58250;SDS011;51449;51.676;5.812;2023-06-10T15:45:55;5.70;;;5.20;;
58250;SDS011;51449;51.676;5.812;2023-06-10T15:48:36;6.35;;;5.75;;
58250;SDS011;51449;51.676;5.812;2023-06-10T15:51:16;5.78;;;5.25;;
58250;SDS011;51449;51.676;5.812;2023-06-10T15:53:56;6.15;;;5.40;;
58250;SDS011;51449;51.676;5.812;2023-06-10T15:56:36;6.32;;;5.72;;
58250;SDS011;51449;51.676;5.812;2023-06-10T15:59:19;7.45;;;5.50;;
58250;SDS011;51449;51.676;5.812;2023-06-10T16:02:00;6.28;;;5.65;;
58250;SDS011;51449;51.676;5.812;2023-06-10T16:04:40;6.10;;;5.60;;
58250;SDS011;51449;51.676;5.812;2023-06-10T16:07:20;6.60;;;5.63;;
58250;SDS011;51449;51.676;5.812;2023-06-10T16:10:01;5.93;;;5.32;;
58250;SDS011;51449;51.676;5.812;2023-06-10T16:12:41;6.20;;;5.70;;
58250;SDS011;51449;51.676;5.812;2023-06-10T16:15:21;6.15;;;5.55;;
58250;SDS011;51449;51.676;5.812;2023-06-10T16:18:01;6.65;;;5.40;;
58250;SDS011;51449;51.676;5.812;2023-06-10T16:20:43;6.07;;;5.47;;
58250;SDS011;51449;51.676;5.812;2023-06-10T16:23:23;5.85;;;5.35;;
58250;SDS011;51449;51.676;5.812;2023-06-10T16:26:03;6.43;;;5.72;;
58250;SDS011;51449;51.676;5.812;2023-06-10T16:28:44;6.38;;;5.78;;